Time;durP1;ratioP1;P1;durP2;ratioP2;P2;SDS_P1;SDS_P2;PMS_P1;PMS_P2;Temp;Humidity;BMP_temperature;BMP_pressure;BME280_temperature;BME280_humidity;BME280_pressure;Samples;Min_cycle;Max_cycle;Signal;HPM_P1;HPM_P2
2022/03/05 00:01:48;;;;;;;62.05;28.92;;;;;;;0.09;73.50;97413.83;1734952;82;25690;-86
2022/03/05 00:04:15;;;;;;;55.33;27.48;;;;;;;0.10;73.48;97416.34;1735026;82;26661;-83
2022/03/05 00:06:42;;;;;;;50.08;24.75;;;;;;;0.12;73.49;97416.20;1734932;82;26345;-85
2022/03/05 00:09:08;;;;;;;44.45;24.40;;;;;;;0.13;73.47;97421.34;1734866;82;27431;-83
2022/03/05 00:11:35;;;;;;;58.50;29.45;;;;;;;0.07;73.40;97415.30;1734742;82;25781;-83
2022/03/05 00:14:02;;;;;;;55.40;28.65;;;;;;;0.00;73.43;97416.87;1735043;82;25671;-83
2022/03/05 00:16:28;;;;;;;51.60;25.68;;;;;;;0.02;73.58;97420.20;1734952;82;25678;-83
2022/03/05 00:18:55;;;;;;;52.88;29.35;;;;;;;0.03;73.59;97419.70;1735052;82;25714;-83
2022/03/05 00:21:22;;;;;;;52.00;26.73;;;;;;;0.06;73.61;97420.26;1735003;82;27403;-83
2022/03/05 00:23:49;;;;;;;49.23;26.07;;;;;;;0.07;73.51;97421.09;1734881;82;25782;-83
2022/03/05 00:26:16;;;;;;;50.00;27.75;;;;;;;0.04;73.50;97421.38;1735021;82;26290;-82
2022/03/05 00:28:43;;;;;;;43.25;25.75;;;;;;;0.06;73.52;97424.24;1735009;82;26711;-83
2022/03/05 00:31:10;;;;;;;52.58;26.35;;;;;;;0.12;73.54;97423.64;1735049;82;25642;-83
2022/03/05 00:33:36;;;;;;;43.28;26.27;;;;;;;0.18;73.51;97423.08;1735047;82;27306;-83
2022/03/05 00:36:03;;;;;;;48.75;26.65;;;;;;;0.21;73.52;97426.77;1734879;82;26012;-83
2022/03/05 00:38:30;;;;;;;46.05;26.48;;;;;;;0.20;73.49;97429.08;1734971;82;26249;-83
2022/03/05 00:40:57;;;;;;;44.60;24.98;;;;;;;0.19;73.49;97424.75;1735046;82;25757;-89
2022/03/05 00:43:23;;;;;;;54.18;28.05;;;;;;;0.14;73.46;97421.69;1734927;82;25240;-84
2022/03/05 00:45:50;;;;;;;48.45;27.20;;;;;;;0.15;73.57;97426.02;1735046;82;27505;-83
2022/03/05 00:48:17;;;;;;;51.98;27.52;;;;;;;0.15;73.57;97422.52;1734688;82;25889;-83
2022/03/05 00:50:43;;;;;;;49.35;27.95;;;;;;;0.15;73.60;97415.39;1734994;82;25213;-85
2022/03/05 00:53:11;;;;;;;53.38;29.02;;;;;;;0.16;73.58;97415.74;1735107;82;25863;-85
2022/03/05 00:55:38;;;;;;;50.73;28.17;;;;;;;0.19;73.59;97423.42;1734993;82;25776;-83
2022/03/05 00:58:05;;;;;;;45.55;26.87;;;;;;;0.21;73.54;97416.16;1735104;82;27450;-83
2022/03/05 01:00:32;;;;;;;49.15;27.82;;;;;;;0.23;73.56;97418.17;1735126;82;25734;-86
2022/03/05 01:02:58;;;;;;;48.87;28.38;;;;;;;0.26;73.55;97410.38;1735137;82;25680;-83
2022/03/05 01:05:25;;;;;;;48.55;28.70;;;;;;;0.28;73.59;97411.08;1735205;82;25657;-83
2022/03/05 01:07:52;;;;;;;50.98;27.40;;;;;;;0.27;73.60;97411.56;1735222;82;26361;-83
2022/03/05 01:10:18;;;;;;;53.40;28.30;;;;;;;0.25;73.58;97414.02;1735095;82;27535;-85
2022/03/05 01:12:45;;;;;;;53.83;29.07;;;;;;;0.23;73.61;97416.84;1735020;82;25699;-83
2022/03/05 01:15:12;;;;;;;47.98;27.25;;;;;;;0.24;73.70;97414.51;1735263;82;25661;-83
2022/03/05 01:17:39;;;;;;;46.00;25.25;;;;;;;0.30;73.73;97415.75;1734951;82;25776;-86
2022/03/05 01:20:07;;;;;;;45.45;25.05;;;;;;;0.29;73.53;97418.90;1735116;82;26260;-84
2022/03/05 01:22:33;;;;;;;47.25;26.93;;;;;;;0.25;73.47;97412.20;1735048;82;26597;-83
2022/03/05 01:25:00;;;;;;;53.83;28.55;;;;;;;0.23;73.48;97415.52;1735189;82;25760;-83
2022/03/05 01:27:27;;;;;;;118.10;47.88;;;;;;;0.24;73.52;97405.73;1735577;82;26234;-83
2022/03/05 01:29:54;;;;;;;83.62;38.02;;;;;;;0.22;73.58;97411.19;1734943;82;26370;-83
2022/03/05 01:32:20;;;;;;;83.85;41.50;;;;;;;0.15;73.59;97412.73;1735208;82;25650;-83
2022/03/05 01:34:47;;;;;;;72.40;37.80;;;;;;;0.12;73.60;97413.02;1735128;82;27527;-85
2022/03/05 01:37:13;;;;;;;59.63;31.45;;;;;;;0.11;73.62;97410.55;1734882;82;25793;-85
2022/03/05 01:39:41;;;;;;;55.98;30.10;;;;;;;0.12;73.71;97410.37;1735228;82;25726;-84
2022/03/05 01:42:08;;;;;;;51.65;29.87;;;;;;;0.12;73.69;97414.35;1736017;82;25946;-84
2022/03/05 01:44:35;;;;;;;52.75;28.95;;;;;;;0.19;73.73;97411.97;1742968;82;25725;-88
2022/03/05 01:47:03;;;;;;;52.90;29.30;;;;;;;0.24;73.70;97406.55;1743232;82;27255;-84
2022/03/05 01:49:30;;;;;;;49.48;28.00;;;;;;;0.26;73.61;97405.91;1742931;82;25283;-83
2022/03/05 01:51:58;;;;;;;55.12;29.25;;;;;;;0.29;73.60;97409.61;1742826;82;25724;-84
2022/03/05 01:54:25;;;;;;;58.15;29.77;;;;;;;0.32;73.51;97405.83;1742949;82;26290;-83
2022/03/05 01:56:54;;;;;;;51.85;28.42;;;;;;;0.32;73.53;97409.32;1742936;82;25734;-83
2022/03/05 01:59:21;;;;;;;49.18;27.90;;;;;;;0.34;73.54;97406.03;1743031;82;27602;-85
2022/03/05 02:01:48;;;;;;;50.52;29.52;;;;;;;0.34;73.56;97404.70;1742808;82;25683;-83
2022/03/05 02:04:14;;;;;;;50.60;28.40;;;;;;;0.38;73.56;97401.73;1743050;81;25726;-84
2022/03/05 02:06:41;;;;;;;49.27;28.30;;;;;;;0.38;73.54;97403.05;1742640;82;26404;-83
2022/03/05 02:09:08;;;;;;;52.08;29.15;;;;;;;0.31;73.49;97406.31;1743035;82;25792;-83
2022/03/05 02:11:35;;;;;;;51.00;29.45;;;;;;;0.28;73.52;97398.64;1742871;82;27513;-83
2022/03/05 02:14:02;;;;;;;52.70;28.45;;;;;;;0.21;73.55;97397.57;1742907;82;25694;-84
2022/03/05 02:16:29;;;;;;;50.50;28.67;;;;;;;0.19;73.60;97398.69;1742953;82;25689;-86
2022/03/05 02:18:56;;;;;;;55.98;29.65;;;;;;;0.16;73.67;97397.65;1742961;82;25956;-83
2022/03/05 02:21:25;;;;;;;53.75;29.98;;;;;;;0.15;73.73;97390.18;1743055;82;25807;-85
2022/03/05 02:23:52;;;;;;;53.63;29.23;;;;;;;0.15;73.82;97392.83;1742876;82;27400;-87
2022/03/05 02:26:18;;;;;;;53.98;30.72;;;;;;;0.18;73.85;97396.53;1742774;82;25669;-84
2022/03/05 02:28:45;;;;;;;53.63;30.12;;;;;;;0.19;73.88;97399.53;1742988;82;25600;-83
2022/03/05 02:31:12;;;;;;;64.85;33.70;;;;;;;0.20;73.85;97394.57;1743051;82;26480;-85
2022/03/05 02:33:41;;;;;;;58.98;31.17;;;;;;;0.15;73.80;97399.47;1742945;82;25748;-84
2022/03/05 02:36:09;;;;;;;57.62;31.30;;;;;;;0.13;73.85;97397.45;1742904;81;28570;-85
2022/03/05 02:38:35;;;;;;;61.40;31.23;;;;;;;0.12;73.96;97403.73;1750491;80;26286;-85
2022/03/05 02:41:02;;;;;;;54.00;29.55;;;;;;;0.16;74.00;97402.47;1773640;80;26237;-86
2022/03/05 02:43:29;;;;;;;87.80;41.45;;;;;;;0.16;73.94;97402.47;1741673;80;25673;-86
2022/03/05 02:45:56;;;;;;;80.83;38.20;;;;;;;0.15;73.95;97404.78;1723049;83;25728;-88
2022/03/05 02:48:22;;;;;;;94.95;42.90;;;;;;;0.16;74.02;97407.78;1722985;82;28170;-84
2022/03/05 02:50:50;;;;;;;92.55;44.95;;;;;;;0.14;73.96;97407.58;1722927;83;25257;-86
2022/03/05 02:53:17;;;;;;;83.30;40.15;;;;;;;0.11;74.05;97408.73;1723124;83;25774;-88
2022/03/05 02:55:44;;;;;;;66.85;35.43;;;;;;;0.11;74.05;97410.55;1723003;83;26279;-83
2022/03/05 02:58:11;;;;;;;71.87;36.30;;;;;;;0.09;74.08;97412.50;1723225;83;25648;-84
2022/03/05 03:00:38;;;;;;;67.65;35.45;;;;;;;0.11;74.17;97416.69;1723063;83;27500;-83
2022/03/05 03:03:05;;;;;;;66.28;34.53;;;;;;;0.13;74.15;97420.01;1722908;83;25767;-83
2022/03/05 03:05:32;;;;;;;64.42;32.65;;;;;;;0.12;74.14;97418.33;1723077;83;25731;-83
2022/03/05 03:07:58;;;;;;;60.98;33.53;;;;;;;0.10;74.11;97413.69;1722505;82;25791;-83
2022/03/05 03:10:25;;;;;;;80.35;38.90;;;;;;;0.06;74.11;97419.42;1722998;82;25708;-83
2022/03/05 03:12:52;;;;;;;71.87;36.48;;;;;;;0.03;74.16;97421.87;1723108;82;27511;-83
2022/03/05 03:15:18;;;;;;;80.30;38.40;;;;;;;0.02;74.22;97420.20;1722941;83;25746;-84
2022/03/05 03:17:48;;;;;;;69.95;34.92;;;;;;;0.03;74.25;97416.56;1723095;82;25744;-83
2022/03/05 03:20:22;;;;;;;61.48;33.28;;;;;;;0.03;74.26;97417.05;1723075;83;25914;-83
2022/03/05 03:22:48;;;;;;;63.48;34.27;;;;;;;0.05;74.37;97421.23;1722963;83;25704;-83
2022/03/05 03:25:15;;;;;;;58.90;32.48;;;;;;;0.11;74.39;97415.36;1722964;83;28166;-83
2022/03/05 03:27:42;;;;;;;61.02;33.70;;;;;;;0.17;74.33;97416.58;1722925;83;26322;-85
2022/03/05 03:30:11;;;;;;;64.05;33.92;;;;;;;0.16;74.24;97417.56;1723092;83;25748;-83
2022/03/05 03:32:39;;;;;;;64.15;33.63;;;;;;;0.15;74.26;97415.39;1723031;83;25847;-84
2022/03/05 03:35:07;;;;;;;60.67;31.90;;;;;;;0.17;74.26;97418.74;1722998;83;25278;-84
2022/03/05 03:37:35;;;;;;;57.53;34.13;;;;;;;0.16;74.24;97416.23;1722895;83;27451;-83
2022/03/05 03:40:06;;;;;;;63.92;33.08;;;;;;;0.20;74.28;97410.49;1723018;83;25523;-83
2022/03/05 03:42:34;;;;;;;59.45;33.63;;;;;;;0.25;74.29;97409.55;1722835;82;25732;-83
2022/03/05 03:45:01;;;;;;;62.62;32.98;;;;;;;0.29;74.21;97416.24;1697222;83;25923;-83
2022/03/05 03:47:27;;;;;;;62.13;33.92;;;;;;;0.29;74.19;97411.42;1697420;84;25810;-83
2022/03/05 03:49:54;;;;;;;62.08;32.50;;;;;;;0.25;74.20;97410.88;1697480;84;28338;-86
2022/03/05 03:52:21;;;;;;;58.42;33.02;;;;;;;0.23;74.33;97411.54;1697397;83;25730;-85
2022/03/05 03:54:50;;;;;;;57.90;32.53;;;;;;;0.23;74.37;97418.17;1697440;84;25901;-83
2022/03/05 03:57:16;;;;;;;63.28;34.23;;;;;;;0.14;74.33;97419.03;1697450;84;26617;-83
2022/03/05 03:59:46;;;;;;;64.70;35.08;;;;;;;0.10;74.44;97427.45;1697361;84;25701;-83
2022/03/05 04:02:11;;;;;;;69.97;36.80;;;;;;;0.10;74.53;97421.65;1697398;84;28371;-83
2022/03/05 04:04:38;;;;;;;69.87;36.10;;;;;;;0.11;74.58;97425.14;1697353;84;25766;-83
2022/03/05 04:09:49;;;;;;;67.32;36.38;;;;;;;0.13;74.63;97427.13;1697614;84;25777;-83
2022/03/05 04:12:16;;;;;;;61.65;34.75;;;;;;;0.13;74.69;97423.98;1697619;84;25450;-84
2022/03/05 04:14:42;;;;;;;84.60;43.83;;;;;;;0.13;74.73;97425.31;1697492;84;26902;-83
2022/03/05 04:17:09;;;;;;;70.62;39.70;;;;;;;0.14;74.71;97423.50;1697478;84;25639;-83
2022/03/05 04:19:36;;;;;;;70.65;38.00;;;;;;;0.13;74.72;97425.31;1697472;84;25310;-83
2022/03/05 04:22:03;;;;;;;68.83;37.60;;;;;;;0.13;74.75;97429.79;1697631;84;25893;-83
2022/03/05 04:24:29;;;;;;;68.80;38.80;;;;;;;0.13;74.80;97423.98;1697626;84;25682;-83
2022/03/05 04:26:56;;;;;;;77.85;39.35;;;;;;;0.15;74.79;97422.52;1697612;84;27337;-83
2022/03/05 04:29:23;;;;;;;66.75;36.80;;;;;;;0.15;74.79;97423.36;1697322;83;25682;-84
2022/03/05 04:31:50;;;;;;;67.90;37.28;;;;;;;0.15;74.84;97426.02;1697552;84;25737;-83
2022/03/05 04:34:18;;;;;;;69.87;36.77;;;;;;;0.18;74.86;97423.56;1697582;83;26242;-83
2022/03/05 04:36:45;;;;;;;63.35;34.13;;;;;;;0.16;74.83;97434.33;1697735;84;25674;-82
2022/03/05 04:39:12;;;;;;;68.85;37.25;;;;;;;0.10;74.79;97430.94;1697606;84;27526;-83
2022/03/05 04:41:39;;;;;;;72.58;38.33;;;;;;;0.05;74.83;97435.00;1697601;84;26280;-82
2022/03/05 04:44:06;;;;;;;69.55;37.83;;;;;;;0.00;74.91;97428.30;1716287;81;25653;-82
2022/03/05 04:46:33;;;;;;;67.60;37.75;;;;;;;0.04;74.98;97432.00;1699221;84;25750;-84
2022/03/05 04:49:00;;;;;;;62.73;35.80;;;;;;;0.07;74.97;97444.98;1744932;82;25689;-83
2022/03/05 04:51:26;;;;;;;67.95;36.55;;;;;;;0.08;74.98;97440.02;1699423;84;27522;-83
2022/03/05 04:53:53;;;;;;;68.28;37.17;;;;;;;0.08;74.99;97438.70;1740180;82;25725;-83
2022/03/05 04:56:20;;;;;;;67.80;37.67;;;;;;;0.12;75.02;97443.55;1735044;82;25696;-83
2022/03/05 04:58:46;;;;;;;65.30;37.95;;;;;;;0.14;75.02;97442.92;1699696;84;25722;-85
2022/03/05 05:01:13;;;;;;;64.92;35.00;;;;;;;0.19;75.05;97442.49;1734994;82;25730;-83
2022/03/05 05:03:39;;;;;;;58.78;33.70;;;;;;;0.15;75.01;97443.75;1699690;84;28161;-83
2022/03/05 05:06:07;;;;;;;62.25;34.45;;;;;;;0.10;74.98;97440.72;1734998;82;25674;-83
2022/03/05 05:08:33;;;;;;;58.05;32.93;;;;;;;0.09;74.97;97446.52;1699601;84;25870;-84
2022/03/05 05:11:00;;;;;;;58.52;32.85;;;;;;;0.05;74.89;97450.43;1735993;82;25928;-84
2022/03/05 05:13:27;;;;;;;60.73;34.73;;;;;;;-0.02;74.81;97452.84;1735138;82;25183;-84
2022/03/05 05:15:53;;;;;;;61.20;32.83;;;;;;;-0.02;74.87;97449.35;1699412;84;27406;-84
2022/03/05 05:18:20;;;;;;;60.28;32.93;;;;;;;0.01;74.89;97442.41;1745064;82;25745;-85
2022/03/05 05:20:47;;;;;;;47.15;28.40;;;;;;;-0.05;74.81;97446.98;1699388;84;25743;-85
2022/03/05 05:23:13;;;;;;;44.90;26.20;;;;;;;-0.05;74.74;97444.33;1745035;82;26382;-83
2022/03/05 05:25:40;;;;;;;43.50;26.23;;;;;;;-0.07;74.62;97453.75;1699325;84;25683;-84
2022/03/05 05:28:06;;;;;;;45.67;27.73;;;;;;;-0.14;74.54;97457.14;1745024;82;27418;-84
2022/03/05 05:30:33;;;;;;;46.02;27.32;;;;;;;-0.14;74.56;97465.94;1738182;82;26498;-84
2022/03/05 05:33:00;;;;;;;50.17;29.10;;;;;;;-0.12;74.59;97461.30;1735118;82;25674;-84
2022/03/05 05:35:27;;;;;;;50.28;29.02;;;;;;;-0.10;74.55;97465.13;1699573;84;25719;-83
2022/03/05 05:37:54;;;;;;;56.37;32.65;;;;;;;-0.10;74.50;97466.46;1734986;82;25677;-84
2022/03/05 05:40:20;;;;;;;50.63;29.37;;;;;;;-0.08;74.49;97461.85;1699666;84;27429;-85
2022/03/05 05:42:47;;;;;;;55.12;31.57;;;;;;;-0.10;74.39;97467.79;1734610;82;25851;-86
2022/03/05 05:45:14;;;;;;;57.62;32.63;;;;;;;-0.12;74.38;97465.27;1710789;83;26316;-84
2022/03/05 05:47:40;;;;;;;56.88;32.17;;;;;;;-0.13;74.34;97465.45;1724648;82;26515;-86
2022/03/05 05:50:08;;;;;;;54.25;30.85;;;;;;;-0.13;74.30;97472.91;1730223;82;25651;-86
2022/03/05 05:52:35;;;;;;;50.60;29.82;;;;;;;-0.15;74.24;97466.07;1729995;82;27476;-84
2022/03/05 05:55:02;;;;;;;50.25;29.48;;;;;;;-0.17;74.28;97468.86;1730056;82;25776;-86
2022/03/05 05:57:29;;;;;;;53.45;30.20;;;;;;;-0.15;74.24;97476.69;1730017;82;25764;-85
2022/03/05 05:59:55;;;;;;;54.08;30.77;;;;;;;-0.15;74.22;97476.69;1730053;82;25667;-85
2022/03/05 06:02:23;;;;;;;51.55;28.80;;;;;;;-0.17;74.23;97479.48;1730038;82;25904;-84
2022/03/05 06:04:49;;;;;;;50.35;29.85;;;;;;;-0.15;74.22;97480.66;1729985;82;27369;-85
2022/03/05 06:07:16;;;;;;;49.25;27.85;;;;;;;-0.21;74.09;97489.17;1730064;82;25686;-85
2022/03/05 06:09:43;;;;;;;49.18;27.95;;;;;;;-0.26;74.16;97500.23;1730135;82;25722;-86
2022/03/05 06:12:09;;;;;;;49.65;29.50;;;;;;;-0.27;74.25;97497.23;1730041;82;26362;-84
2022/03/05 06:14:36;;;;;;;55.08;30.02;;;;;;;-0.27;74.28;97499.05;1729894;82;25278;-85
2022/03/05 06:17:03;;;;;;;106.72;57.15;;;;;;;-0.27;74.28;97501.70;1730032;82;27992;-85
2022/03/05 06:19:30;;;;;;;65.47;35.68;;;;;;;-0.25;74.37;97500.59;1729895;82;25737;-84
2022/03/05 06:21:56;;;;;;;52.53;30.02;;;;;;;-0.19;74.37;97500.48;1730078;82;25723;-85
2022/03/05 06:24:23;;;;;;;44.15;26.17;;;;;;;-0.18;74.34;97502.16;1729944;82;25768;-85
2022/03/05 06:26:49;;;;;;;43.33;25.97;;;;;;;-0.20;74.25;97504.12;1730136;82;25667;-84
2022/03/05 06:29:16;;;;;;;43.85;26.93;;;;;;;-0.19;74.22;97512.43;1730027;82;27470;-86
2022/03/05 06:31:43;;;;;;;52.62;29.72;;;;;;;-0.19;74.19;97505.80;1729593;82;26431;-86
2022/03/05 06:34:09;;;;;;;55.70;31.50;;;;;;;-0.19;74.18;97507.96;1729945;82;25735;-87
2022/03/05 06:36:36;;;;;;;57.48;32.13;;;;;;;-0.16;74.27;97517.46;1729992;82;25783;-87
2022/03/05 06:39:03;;;;;;;53.78;31.33;;;;;;;-0.13;74.29;97518.02;1729944;82;25713;-85
2022/03/05 06:41:30;;;;;;;51.95;29.55;;;;;;;-0.10;74.32;97517.72;1730088;82;27636;-85
2022/03/05 06:43:57;;;;;;;59.05;32.25;;;;;;;-0.10;74.33;97519.53;1731046;82;25747;-84
2022/03/05 06:46:23;;;;;;;85.42;37.63;;;;;;;-0.11;74.34;97521.34;1737855;82;25718;-85
2022/03/05 06:48:50;;;;;;;61.02;34.63;;;;;;;-0.10;74.25;97528.81;1741313;81;25783;-85
2022/03/05 06:51:16;;;;;;;58.25;32.70;;;;;;;-0.11;74.24;97521.34;1759010;81;25859;-84
2022/03/05 06:53:43;;;;;;;60.35;34.20;;;;;;;-0.10;74.23;97528.81;1758682;81;28219;-85
2022/03/05 06:56:10;;;;;;;58.87;34.65;;;;;;;-0.11;74.23;97529.30;1758595;81;25772;-84
2022/03/05 06:58:36;;;;;;;63.02;33.78;;;;;;;-0.08;74.25;97532.17;1758919;81;25756;-87
2022/03/05 07:01:03;;;;;;;56.37;31.20;;;;;;;-0.05;74.28;97533.22;1758871;81;25734;-85
2022/03/05 07:03:30;;;;;;;53.15;32.23;;;;;;;-0.05;74.19;97539.86;1758982;80;25676;-84
2022/03/05 07:05:56;;;;;;;54.98;31.90;;;;;;;-0.08;74.16;97536.98;1758849;81;27350;-86
2022/03/05 07:08:23;;;;;;;56.65;31.68;;;;;;;-0.08;74.20;97538.31;1758674;80;25738;-85
2022/03/05 07:10:49;;;;;;;60.65;34.20;;;;;;;-0.11;74.05;97539.92;1758971;81;25751;-84
2022/03/05 07:13:16;;;;;;;56.28;32.95;;;;;;;-0.11;74.04;97542.57;1758948;81;25657;-85
2022/03/05 07:15:43;;;;;;;55.83;32.93;;;;;;;-0.08;74.06;97543.62;1758906;81;25649;-85
2022/03/05 07:18:09;;;;;;;54.70;31.33;;;;;;;-0.11;73.96;97541.24;1758891;81;28177;-84
2022/03/05 07:20:37;;;;;;;64.87;35.52;;;;;;;-0.13;73.96;97537.92;1758814;81;25802;-86
2022/03/05 07:23:04;;;;;;;59.20;33.38;;;;;;;-0.09;73.95;97535.31;1758880;81;25748;-84
2022/03/05 07:25:36;;;;;;;55.00;33.23;;;;;;;-0.06;73.82;97539.50;1759117;80;25739;-84
2022/03/05 07:28:01;;;;;;;49.53;30.20;;;;;;;-0.07;73.77;97538.67;1758529;81;25654;-84
2022/03/05 07:30:27;;;;;;;49.08;29.50;;;;;;;-0.03;73.69;97551.17;1758943;81;28299;-85
2022/03/05 07:32:54;;;;;;;59.38;32.30;;;;;;;-0.03;73.63;97547.19;1758912;81;25640;-84
2022/03/05 07:35:21;;;;;;;53.68;30.55;;;;;;;-0.04;73.59;97543.70;1758348;80;25727;-83
2022/03/05 07:37:47;;;;;;;51.33;31.15;;;;;;;-0.04;73.58;97549.49;1758769;81;25706;-83
2022/03/05 07:40:14;;;;;;;64.25;36.35;;;;;;;0.00;73.63;97549.05;1758957;81;25656;-85
2022/03/05 07:42:40;;;;;;;115.00;54.08;;;;;;;0.01;73.64;97551.22;1758863;81;28576;-86
2022/03/05 07:45:08;;;;;;;237.05;84.15;;;;;;;0.06;73.62;97554.29;1754682;80;25716;-84
2022/03/05 07:47:34;;;;;;;115.20;44.67;;;;;;;0.10;73.56;97555.69;1772366;80;25688;-83
2022/03/05 07:50:01;;;;;;;72.65;35.30;;;;;;;0.08;73.45;97556.80;1727272;83;25766;-86
2022/03/05 07:52:28;;;;;;;75.80;34.10;;;;;;;0.06;73.36;97568.89;1733613;81;25521;-83
2022/03/05 07:54:54;;;;;;;77.87;40.55;;;;;;;0.06;73.37;97558.27;1727472;83;27339;-83
2022/03/05 07:57:21;;;;;;;92.15;39.25;;;;;;;0.04;73.35;97560.23;1727510;83;25271;-83
2022/03/05 07:59:48;;;;;;;110.60;40.43;;;;;;;0.07;73.36;97563.09;1727554;83;25811;-84
2022/03/05 08:02:19;;;;;;;102.42;45.60;;;;;;;0.11;73.38;97562.68;1711326;82;26442;-83
2022/03/05 08:04:49;;;;;;;88.07;39.38;;;;;;;0.12;73.30;97563.00;1750545;81;25740;-85
2022/03/05 08:07:12;;;;;;;96.78;40.17;;;;;;;0.13;73.23;97560.69;1742528;81;27188;-85
2022/03/05 08:09:40;;;;;;;90.85;42.30;;;;;;;0.14;73.25;97561.53;1743831;80;25689;-83
2022/03/05 08:12:08;;;;;;;193.85;82.33;;;;;;;0.17;73.27;97570.55;1744045;82;25785;-85
2022/03/05 08:14:34;;;;;;;80.83;42.75;;;;;;;0.19;73.26;97564.61;1744138;82;26304;-86
2022/03/05 08:17:01;;;;;;;59.95;34.23;;;;;;;0.23;73.20;97565.52;1733219;82;25744;-84
2022/03/05 08:19:28;;;;;;;56.95;33.00;;;;;;;0.18;72.97;97571.73;1744113;82;27390;-82
2022/03/05 08:21:54;;;;;;;58.85;33.50;;;;;;;0.19;73.00;97574.73;1743992;82;25777;-82
2022/03/05 08:24:21;;;;;;;54.38;32.75;;;;;;;0.23;73.09;97577.47;1744040;80;25742;-85
2022/03/05 08:26:48;;;;;;;62.10;34.35;;;;;;;0.21;72.95;97590.04;1744102;82;25766;-86
2022/03/05 08:29:16;;;;;;;66.12;36.85;;;;;;;0.23;72.85;97584.59;1743880;82;25722;-84
2022/03/05 08:31:43;;;;;;;56.20;35.25;;;;;;;0.25;72.80;97580.79;1743980;82;27374;-85
2022/03/05 08:34:09;;;;;;;59.15;36.63;;;;;;;0.26;72.83;97578.48;1744039;82;25709;-83
2022/03/05 08:36:36;;;;;;;61.55;35.35;;;;;;;0.21;72.57;97579.42;1744099;82;26301;-86
2022/03/05 08:39:03;;;;;;;65.35;36.48;;;;;;;0.18;72.53;97579.70;1744165;82;25841;-85
2022/03/05 08:41:30;;;;;;;66.90;38.30;;;;;;;0.19;72.60;97581.38;1744022;82;25717;-84
2022/03/05 08:43:56;;;;;;;66.07;40.00;;;;;;;0.26;72.82;97577.16;1744095;82;27352;-86
2022/03/05 08:46:23;;;;;;;63.83;37.05;;;;;;;0.32;72.70;97581.91;1752479;80;25894;-83
2022/03/05 08:48:49;;;;;;;56.30;33.42;;;;;;;0.34;72.62;97585.75;1754079;81;25756;-86
2022/03/05 08:51:16;;;;;;;59.93;33.08;;;;;;;0.38;72.58;97591.10;1754274;81;25749;-85
2022/03/05 08:53:43;;;;;;;53.83;33.65;;;;;;;0.46;72.62;97589.08;1754235;81;25718;-83
2022/03/05 08:56:10;;;;;;;52.73;32.85;;;;;;;0.46;72.21;97593.06;1754174;81;26939;-87
2022/03/05 08:58:36;;;;;;;57.93;34.05;;;;;;;0.46;72.21;97594.39;1754053;81;25744;-85
2022/03/05 09:01:03;;;;;;;53.83;32.48;;;;;;;0.49;72.05;97600.23;1765583;80;25743;-86
2022/03/05 09:03:30;;;;;;;49.80;31.15;;;;;;;0.47;71.85;97599.56;1758922;81;25882;-86
2022/03/05 09:05:57;;;;;;;55.90;35.08;;;;;;;0.45;71.78;97598.02;1731569;82;25830;-86
2022/03/05 09:08:24;;;;;;;44.33;29.18;;;;;;;0.46;71.84;97598.38;1736906;82;28475;-85
2022/03/05 09:10:51;;;;;;;48.17;29.67;;;;;;;0.40;71.45;97601.59;1742711;82;25741;-84
2022/03/05 09:13:17;;;;;;;47.13;29.15;;;;;;;0.38;71.62;97603.05;1742760;82;25771;-85
2022/03/05 09:18:19;;;;;;;48.98;29.63;;;;;;;0.57;71.74;97600.86;1756105;78;27303;-82
2022/03/05 09:20:47;;;;;;;45.40;25.43;;;;;;;0.68;71.61;97606.84;1732401;82;27388;-86
2022/03/05 09:23:15;;;;;;;43.68;23.98;;;;;;;0.80;71.28;97602.66;1733053;82;25800;-82
2022/03/05 09:25:42;;;;;;;42.35;23.22;;;;;;;0.87;70.88;97601.92;1701961;83;25716;-85
2022/03/05 09:28:08;;;;;;;29.85;17.80;;;;;;;0.93;70.59;97609.33;1702480;84;25754;-84
2022/03/05 09:30:35;;;;;;;28.05;16.75;;;;;;;1.04;70.32;97605.15;1725648;83;25221;-83
2022/03/05 09:33:02;;;;;;;29.52;18.70;;;;;;;1.09;69.96;97608.19;1745836;82;27394;-86
2022/03/05 09:35:28;;;;;;;27.25;15.90;;;;;;;1.18;69.78;97614.46;1745613;82;25704;-83
2022/03/05 09:37:55;;;;;;;26.80;16.45;;;;;;;1.29;69.70;97616.08;1745361;82;25706;-87
2022/03/05 09:40:22;;;;;;;24.65;15.23;;;;;;;1.54;69.64;97612.72;1745597;82;25715;-82
2022/03/05 09:42:49;;;;;;;28.45;16.25;;;;;;;1.92;69.41;97614.77;1745056;82;25699;-84
2022/03/05 09:45:16;;;;;;;22.20;13.70;;;;;;;2.22;68.87;97614.34;1745198;82;27943;-84
2022/03/05 09:47:44;;;;;;;20.55;12.82;;;;;;;2.49;68.44;97610.23;1739291;82;25785;-85
2022/03/05 09:50:13;;;;;;;19.00;13.15;;;;;;;2.69;68.02;97605.52;1731593;82;25737;-85
2022/03/05 09:52:39;;;;;;;19.12;13.03;;;;;;;3.06;67.34;97605.23;1732476;82;25748;-85
2022/03/05 09:55:08;;;;;;;24.43;14.10;;;;;;;3.39;66.95;97595.52;1699033;84;25786;-84
2022/03/05 09:57:35;;;;;;;17.52;11.25;;;;;;;3.74;66.78;97602.48;1714593;83;27342;-87
2022/03/05 10:00:05;;;;;;;14.93;10.43;;;;;;;4.15;66.39;97599.84;1737569;82;25757;-83
2022/03/05 10:02:33;;;;;;;21.40;11.93;;;;;;;4.35;64.92;97598.48;1732858;82;25224;-83
2022/03/05 10:05:18;;;;;;;16.23;10.70;;;;;;;4.32;64.76;97595.68;1699847;84;25698;-83
2022/03/05 10:08:15;;;;;;;14.60;9.85;;;;;;;4.54;64.99;97597.33;1671057;85;25789;-86
2022/03/05 10:10:49;;;;;;;24.65;11.57;;;;;;;4.83;64.24;97595.45;1695986;84;27359;-85
2022/03/05 10:13:31;;;;;;;16.07;10.82;;;;;;;5.01;63.55;97588.87;1701324;83;25840;-84
2022/03/05 10:16:04;;;;;;;22.60;12.43;;;;;;;5.14;63.10;97584.81;1698395;84;25758;-84
2022/03/05 10:18:37;;;;;;;17.55;11.60;;;;;;;5.13;62.89;97590.66;1696040;84;25852;-84
2022/03/05 10:21:06;;;;;;;;;;;;;;;5.30;63.21;97589.61;1666136;86;25871;-83
2022/03/05 10:23:36;;;;;;;14.15;9.18;;;;;;;5.39;62.13;97591.23;1640071;86;27444;-84
2022/03/05 10:26:07;;;;;;;14.03;8.28;;;;;;;5.60;62.23;97588.45;1663524;86;25843;-85
2022/03/05 10:28:35;;;;;;;12.33;8.40;;;;;;;5.62;61.45;97591.28;1663576;86;25895;-84
2022/03/05 10:31:07;;;;;;;15.72;9.50;;;;;;;5.36;59.84;97587.56;1663559;86;26492;-84
2022/03/05 10:33:38;;;;;;;10.70;8.00;;;;;;;5.04;59.91;97593.88;1663515;86;26464;-85
2022/03/05 10:36:07;;;;;;;20.95;11.10;;;;;;;4.71;59.55;97601.13;1663454;86;27565;-85
2022/03/05 10:38:58;;;;;;;16.50;10.13;;;;;;;4.47;59.94;97607.03;1663493;86;25750;-84
2022/03/05 10:41:35;;;;;;;22.20;11.95;;;;;;;4.28;60.10;97601.52;1663411;86;25570;-83
2022/03/05 10:44:10;;;;;;;28.02;12.98;;;;;;;4.06;60.20;97601.67;1682037;84;26340;-82
2022/03/05 10:46:47;;;;;;;29.50;18.30;;;;;;;3.93;60.19;97603.50;1691873;84;25260;-81
2022/03/05 10:49:21;;;;;;;51.08;20.77;;;;;;;3.79;60.34;97609.48;1692305;84;27449;-84
2022/03/05 10:52:04;;;;;;;38.55;16.62;;;;;;;3.63;60.50;97606.76;1690303;82;25895;-88
2022/03/05 10:54:39;;;;;;;41.42;18.12;;;;;;;3.51;60.63;97608.06;1691959;84;25686;-88
2022/03/05 10:57:19;;;;;;;24.80;13.40;;;;;;;3.35;60.83;97614.70;1691429;84;25793;-89
2022/03/05 10:59:52;;;;;;;22.25;12.10;;;;;;;3.16;60.61;97615.77;1691997;84;25754;-89
2022/03/05 11:02:21;;;;;;;22.20;13.38;;;;;;;2.83;60.42;97617.44;1690537;84;27446;-89
2022/03/05 11:04:51;;;;;;;15.20;9.75;;;;;;;2.43;60.78;97608.17;1692040;82;25762;-88
2022/03/05 11:07:19;;;;;;;15.50;8.10;;;;;;;2.22;60.80;97605.02;1692220;84;25724;-88
2022/03/05 11:09:49;;;;;;;11.53;7.58;;;;;;;1.95;60.70;97611.27;1692118;83;26722;-88
2022/03/05 11:12:19;;;;;;;11.80;7.80;;;;;;;1.78;60.66;97607.64;1691939;84;25734;-89
2022/03/05 11:14:51;;;;;;;10.63;7.40;;;;;;;1.72;61.21;97608.23;1691995;82;28024;-89
2022/03/05 11:17:19;;;;;;;15.85;9.68;;;;;;;1.75;61.27;97607.94;1692129;84;25699;-89
2022/03/05 11:19:46;;;;;;;16.02;9.83;;;;;;;1.77;61.36;97608.63;1689374;82;25686;-89
2022/03/05 11:22:15;;;;;;;37.95;16.82;;;;;;;1.81;61.41;97614.50;1686871;85;26630;-88
2022/03/05 11:24:43;;;;;;;31.57;13.68;;;;;;;1.81;61.40;97602.52;1687256;85;25248;-89
2022/03/05 11:27:15;;;;;;;25.12;13.22;;;;;;;1.74;61.23;97604.93;1687073;82;27447;-89
2022/03/05 11:30:05;;;;;;;22.42;10.93;;;;;;;1.71;61.49;97609.22;1687092;85;25777;-88
2022/03/05 11:32:37;;;;;;;16.35;9.73;;;;;;;1.56;61.12;97602.77;1686943;85;25707;-89